createdAt,value
2022-09-07T00:02:05.555Z,18.60
2022-09-07T00:04:31.782Z,18.50
2022-09-07T00:06:57.976Z,18.60
2022-09-07T00:09:24.367Z,18.50
2022-09-07T00:11:50.825Z,18.50
2022-09-07T00:14:16.952Z,18.50
2022-09-07T00:16:43.273Z,18.50
2022-09-07T00:19:09.601Z,18.50
2022-09-07T00:21:36.528Z,18.50
2022-09-07T00:24:03.321Z,18.50
2022-09-07T00:26:30.364Z,18.50
2022-09-07T00:28:58.862Z,18.50
2022-09-07T00:31:25.386Z,18.40
2022-09-07T00:33:53.048Z,18.40
2022-09-07T00:36:21.527Z,18.40
2022-09-07T00:38:47.820Z,18.40
2022-09-07T00:41:15.563Z,18.30
2022-09-07T00:43:48.265Z,18.40
2022-09-07T00:46:17.324Z,18.30
2022-09-07T00:49:02.295Z,18.40
2022-09-07T00:51:53.779Z,18.40
2022-09-07T00:54:25.692Z,18.40
2022-09-07T00:56:53.251Z,18.30
2022-09-07T00:59:24.638Z,18.30
2022-09-07T01:01:51.202Z,18.30
2022-09-07T01:04:17.877Z,18.30
2022-09-07T01:06:44.352Z,18.20
2022-09-07T01:09:18.340Z,18.20
2022-09-07T01:11:50.542Z,18.20
2022-09-07T01:14:20.537Z,18.20
2022-09-07T01:17:23.571Z,18.20
2022-09-07T01:20:08.156Z,18.20
2022-09-07T01:23:01.342Z,18.20
2022-09-07T01:25:59.426Z,18.20
2022-09-07T01:28:30.434Z,18.10
2022-09-07T01:31:06.050Z,18.00
2022-09-07T01:33:47.158Z,18.00
2022-09-07T01:36:49.919Z,18.00
2022-09-07T01:39:19.100Z,18.00
2022-09-07T01:41:57.917Z,17.90
2022-09-07T01:44:28.124Z,17.90
2022-09-07T01:46:58.622Z,17.90
2022-09-07T01:49:48.449Z,17.80
2022-09-07T01:52:31.283Z,17.80
2022-09-07T01:55:13.168Z,17.80
2022-09-07T01:57:45.221Z,17.70
2022-09-07T02:00:18.068Z,17.60
2022-09-07T02:02:53.093Z,17.50
2022-09-07T02:05:39.177Z,17.50
2022-09-07T02:08:28.406Z,17.40
2022-09-07T02:11:20.046Z,17.40
2022-09-07T02:13:48.913Z,17.40
2022-09-07T02:16:25.280Z,17.30
2022-09-07T02:18:55.675Z,17.30
2022-09-07T02:21:27.022Z,17.20
2022-09-07T02:24:03.693Z,17.20
2022-09-07T02:26:30.305Z,17.20
2022-09-07T02:28:56.623Z,17.20
2022-09-07T02:31:23.178Z,17.20
2022-09-07T02:33:49.365Z,17.20
2022-09-07T02:36:19.440Z,17.20
2022-09-07T02:38:45.655Z,17.20
2022-09-07T02:41:34.455Z,17.30
2022-09-07T02:44:03.604Z,17.30
2022-09-07T02:46:57.344Z,17.30
2022-09-07T02:49:57.160Z,17.30
2022-09-07T02:52:33.019Z,17.30
2022-09-07T02:55:26.138Z,17.40
2022-09-07T02:57:52.165Z,17.40
2022-09-07T03:00:25.256Z,17.40
2022-09-07T03:03:13.187Z,17.50
2022-09-07T03:05:45.775Z,17.50
2022-09-07T03:08:17.956Z,17.50
2022-09-07T03:10:44.354Z,17.50
2022-09-07T03:13:23.436Z,17.50
2022-09-07T03:15:54.977Z,17.50
2022-09-07T03:18:22.313Z,17.60
2022-09-07T03:20:48.721Z,17.50
2022-09-07T03:23:14.909Z,17.60
2022-09-07T03:25:41.281Z,17.60
2022-09-07T03:28:07.758Z,17.60
2022-09-07T03:30:33.906Z,17.50
2022-09-07T03:33:00.125Z,17.50
2022-09-07T03:35:26.201Z,17.50
2022-09-07T03:37:52.609Z,17.50
2022-09-07T03:40:19.042Z,17.50
2022-09-07T03:42:49.472Z,17.50
2022-09-07T03:45:16.044Z,17.50
2022-09-07T03:47:43.864Z,17.50
2022-09-07T03:50:10.121Z,17.50
2022-09-07T03:52:37.145Z,17.50
2022-09-07T03:55:04.593Z,17.50
2022-09-07T03:57:30.843Z,17.50
2022-09-07T03:59:56.906Z,17.50
2022-09-07T04:02:22.998Z,17.50
2022-09-07T04:04:49.244Z,17.50
2022-09-07T04:07:15.586Z,17.50
2022-09-07T04:09:41.775Z,17.40
2022-09-07T04:12:08.561Z,17.40
2022-09-07T04:14:34.929Z,17.30
2022-09-07T04:17:01.106Z,17.20
2022-09-07T04:19:28.406Z,17.20
2022-09-07T04:21:54.797Z,17.10
2022-09-07T04:24:20.889Z,17.10
2022-09-07T04:26:47.029Z,17.00
2022-09-07T04:29:14.354Z,17.00
2022-09-07T04:31:40.601Z,17.00
2022-09-07T04:34:07.352Z,16.90
2022-09-07T04:36:34.540Z,16.90
2022-09-07T04:39:03.446Z,16.90
2022-09-07T04:41:31.215Z,16.90
2022-09-07T04:43:59.384Z,16.90
2022-09-07T04:46:28.201Z,16.80
2022-09-07T04:48:57.230Z,16.80
2022-09-07T04:51:25.614Z,16.70
2022-09-07T04:53:53.391Z,16.70
2022-09-07T04:56:21.037Z,16.80
2022-09-07T04:58:47.826Z,16.70
2022-09-07T05:01:17.890Z,16.70
2022-09-07T05:03:44.819Z,16.70
2022-09-07T05:06:11.024Z,16.70
2022-09-07T05:08:43.427Z,16.60
2022-09-07T05:11:10.822Z,16.60
2022-09-07T05:13:37.337Z,16.60
2022-09-07T05:16:09.238Z,16.60
2022-09-07T05:18:35.602Z,16.60
2022-09-07T05:21:17.401Z,16.60
2022-09-07T05:23:43.808Z,16.60
2022-09-07T05:26:11.326Z,16.60
2022-09-07T05:28:37.880Z,16.60
2022-09-07T05:36:33.482Z,16.60
2022-09-07T05:38:59.721Z,16.60
2022-09-07T05:41:27.005Z,16.60
2022-09-07T05:46:40.444Z,16.60
2022-09-07T05:49:07.491Z,16.60
2022-09-07T05:51:33.898Z,16.60
2022-09-07T05:54:00.043Z,16.60
2022-09-07T05:56:26.163Z,16.60
2022-09-07T05:58:52.284Z,16.70
2022-09-07T06:01:18.819Z,16.70
2022-09-07T06:03:45.378Z,16.70
2022-09-07T06:06:17.501Z,16.70
2022-09-07T06:08:48.857Z,16.70
2022-09-07T06:11:17.914Z,16.70
2022-09-07T06:13:44.371Z,16.70
2022-09-07T06:16:12.655Z,16.70
2022-09-07T06:18:41.184Z,16.80
2022-09-07T06:21:09.394Z,16.80
2022-09-07T06:23:37.310Z,16.80
2022-09-07T06:26:03.994Z,16.90
2022-09-07T06:28:33.473Z,17.00
2022-09-07T06:31:12.253Z,17.10
2022-09-07T06:33:39.785Z,17.30
2022-09-07T06:36:13.278Z,17.50
2022-09-07T06:38:39.933Z,17.80
2022-09-07T06:44:00.724Z,18.90
2022-09-07T06:49:12.988Z,19.60
2022-09-07T06:51:39.024Z,20.20
2022-09-07T06:56:51.232Z,21.10
2022-09-07T06:59:17.363Z,21.40
2022-09-07T07:01:43.437Z,21.10
2022-09-07T07:04:09.536Z,21.00
2022-09-07T07:06:37.321Z,21.00
2022-09-07T07:09:05.957Z,20.80
2022-09-07T07:11:32.313Z,20.90
2022-09-07T07:13:59.265Z,20.90
2022-09-07T07:16:25.374Z,20.70
2022-09-07T07:18:55.153Z,20.70
2022-09-07T07:21:21.455Z,20.70
2022-09-07T07:23:51.889Z,20.80
2022-09-07T07:26:20.849Z,21.80
2022-09-07T07:29:04.610Z,23.10
2022-09-07T07:31:32.539Z,23.80
2022-09-07T07:34:17.514Z,24.70
2022-09-07T07:36:43.619Z,25.70
2022-09-07T07:41:57.664Z,26.10
2022-09-07T07:44:26.444Z,25.80
2022-09-07T07:46:52.584Z,25.30
2022-09-07T07:49:19.245Z,25.20
2022-09-07T07:54:36.189Z,25.30
2022-09-07T07:57:03.277Z,25.10
2022-09-07T07:59:29.622Z,25.00
2022-09-07T08:01:55.977Z,25.90
2022-09-07T08:04:22.399Z,27.00
2022-09-07T08:06:48.420Z,27.70
2022-09-07T08:09:14.496Z,28.10
2022-09-07T08:11:40.777Z,28.40
2022-09-07T08:14:07.866Z,28.90
2022-09-07T08:16:34.362Z,29.10
2022-09-07T08:19:01.794Z,29.10
2022-09-07T08:21:27.815Z,28.80
2022-09-07T08:23:54.488Z,29.20
2022-09-07T08:26:20.561Z,29.80
2022-09-07T08:28:47.727Z,30.30
2022-09-07T08:31:15.468Z,30.90
2022-09-07T08:33:42.193Z,31.30
2022-09-07T08:36:12.053Z,31.20
2022-09-07T08:38:38.798Z,30.60
2022-09-07T08:41:27.060Z,30.50
2022-09-07T08:43:59.100Z,30.20
2022-09-07T08:46:44.785Z,30.80
2022-09-07T08:49:30.468Z,31.60
2022-09-07T08:52:08.829Z,32.30
2022-09-07T08:54:36.082Z,32.60
2022-09-07T09:00:07.410Z,33.40
2022-09-07T09:02:40.263Z,33.80
2022-09-07T09:05:31.483Z,34.30
2022-09-07T09:08:13.592Z,34.50
2022-09-07T09:11:05.299Z,35.20
2022-09-07T09:13:47.532Z,36.00
2022-09-07T09:16:28.245Z,36.70
2022-09-07T09:19:00.165Z,37.20
2022-09-07T09:21:26.708Z,37.70
2022-09-07T09:23:59.658Z,38.00
2022-09-07T09:26:27.743Z,38.30
2022-09-07T09:28:54.429Z,38.50
2022-09-07T09:31:23.623Z,38.60
2022-09-07T09:34:04.785Z,39.00
2022-09-07T09:36:39.406Z,39.40
2022-09-07T09:39:34.658Z,39.30
2022-09-07T09:42:21.690Z,37.80
2022-09-07T09:44:47.943Z,37.30
2022-09-07T09:47:32.295Z,36.60
2022-09-07T09:50:06.957Z,37.20
2022-09-07T09:52:45.141Z,38.10
2022-09-07T09:55:40.640Z,38.60
2022-09-07T10:01:35.449Z,37.00
2022-09-07T10:04:21.506Z,36.20
2022-09-07T10:06:54.073Z,36.00
2022-09-07T10:09:25.529Z,36.20
2022-09-07T10:12:07.605Z,36.10
2022-09-07T10:14:45.679Z,35.70
2022-09-07T10:17:18.575Z,36.60
2022-09-07T10:19:45.082Z,37.00
2022-09-07T10:22:31.373Z,37.50
2022-09-07T10:25:00.204Z,38.50
2022-09-07T10:27:37.207Z,39.20
2022-09-07T10:30:13.930Z,38.40
2022-09-07T10:33:02.034Z,38.60
2022-09-07T10:35:32.782Z,39.20
2022-09-07T10:38:17.331Z,39.90
2022-09-07T10:40:57.826Z,40.40
2022-09-07T10:43:26.846Z,40.70
2022-09-07T10:49:20.601Z,41.00
2022-09-07T10:51:57.205Z,41.40
2022-09-07T10:54:35.832Z,41.30
2022-09-07T10:57:08.019Z,41.10
2022-09-07T11:00:09.566Z,40.90
2022-09-07T11:06:17.049Z,38.70
2022-09-07T11:09:26.841Z,39.00
2022-09-07T11:12:14.019Z,39.60
2022-09-07T11:14:52.281Z,39.80
2022-09-07T11:17:26.843Z,40.60
2022-09-07T11:20:10.717Z,41.10
2022-09-07T11:22:45.139Z,41.50
2022-09-07T11:25:32.276Z,42.00
2022-09-07T11:28:01.542Z,42.40
2022-09-07T11:30:35.776Z,41.50
2022-09-07T11:33:10.863Z,41.30
2022-09-07T11:35:45.260Z,41.40
2022-09-07T11:38:29.374Z,40.80
2022-09-07T11:41:19.151Z,39.80
2022-09-07T11:43:54.725Z,38.80
2022-09-07T11:46:46.349Z,38.30
2022-09-07T11:49:25.334Z,38.10
2022-09-07T11:51:54.933Z,39.10
2022-09-07T11:54:20.932Z,39.80
2022-09-07T11:56:55.112Z,40.60
2022-09-07T11:59:57.657Z,41.20
2022-09-07T12:02:55.454Z,41.80
2022-09-07T12:05:45.768Z,42.40
2022-09-07T12:08:37.005Z,43.30
2022-09-07T12:11:40.664Z,43.40
2022-09-07T12:14:06.693Z,42.50
2022-09-07T12:16:49.183Z,42.90
2022-09-07T12:19:17.703Z,43.00
2022-09-07T12:21:47.864Z,43.20
2022-09-07T12:24:40.685Z,43.40
2022-09-07T12:27:21.366Z,43.50
2022-09-07T12:29:47.361Z,43.40
2022-09-07T12:32:56.842Z,43.30
2022-09-07T12:35:32.948Z,43.20
2022-09-07T12:38:31.107Z,43.10
2022-09-07T12:41:20.089Z,42.60
2022-09-07T12:43:49.041Z,41.80
2022-09-07T12:46:38.386Z,41.40
2022-09-07T12:49:18.781Z,41.80
2022-09-07T12:52:14.901Z,42.10
2022-09-07T12:55:26.046Z,42.50
2022-09-07T12:58:12.379Z,41.70
2022-09-07T13:01:14.594Z,41.70
2022-09-07T13:04:17.694Z,42.00
2022-09-07T13:07:03.765Z,42.10
2022-09-07T13:09:34.101Z,42.10
2022-09-07T13:12:04.032Z,41.40
2022-09-07T13:14:34.804Z,40.00
2022-09-07T13:17:46.116Z,39.60
2022-09-07T13:20:23.362Z,40.00
2022-09-07T13:22:49.390Z,40.00
2022-09-07T13:25:19.936Z,39.90
2022-09-07T13:28:01.120Z,39.60
2022-09-07T13:30:46.535Z,38.30
2022-09-07T13:33:25.300Z,37.20
2022-09-07T13:35:58.395Z,37.20
2022-09-07T13:38:25.108Z,37.20
2022-09-07T13:40:57.631Z,36.50
2022-09-07T13:43:24.449Z,35.80
2022-09-07T13:45:53.286Z,35.00
2022-09-07T13:48:34.275Z,34.30
2022-09-07T13:51:28.449Z,33.70
2022-09-07T13:54:27.588Z,33.10
2022-09-07T13:57:21.366Z,32.90
2022-09-07T13:59:50.936Z,33.60
2022-09-07T14:02:32.748Z,34.00
2022-09-07T14:05:00.345Z,34.20
2022-09-07T14:07:28.834Z,33.90
2022-09-07T14:10:18.901Z,33.80
2022-09-07T14:12:50.634Z,33.40
2022-09-07T14:15:33.641Z,33.10
2022-09-07T14:18:04.232Z,32.80
2022-09-07T14:20:31.932Z,32.30
2022-09-07T14:22:59.079Z,32.00
2022-09-07T14:25:25.633Z,31.70
2022-09-07T14:27:51.673Z,31.50
2022-09-07T14:30:27.347Z,31.20
2022-09-07T14:33:06.172Z,30.80
2022-09-07T14:35:34.001Z,30.60
2022-09-07T14:41:18.247Z,30.30
2022-09-07T14:43:59.595Z,30.20
2022-09-07T14:46:35.550Z,30.00
2022-09-07T14:49:18.167Z,29.90
2022-09-07T14:51:45.837Z,29.80
2022-09-07T14:54:32.140Z,29.60
2022-09-07T14:57:01.728Z,29.40
2022-09-07T15:00:17.160Z,29.20
2022-09-07T15:02:43.377Z,29.10
2022-09-07T15:05:16.046Z,29.10
2022-09-07T15:07:47.554Z,29.00
2022-09-07T15:10:23.539Z,28.90
2022-09-07T15:12:52.406Z,28.80
2022-09-07T15:15:21.415Z,28.80
2022-09-07T15:17:48.524Z,28.70
2022-09-07T15:20:40.412Z,28.60
2022-09-07T15:23:12.527Z,28.50
2022-09-07T15:25:40.659Z,28.50
2022-09-07T15:28:07.385Z,28.40
2022-09-07T15:30:33.914Z,28.30
2022-09-07T15:33:00.053Z,28.20
2022-09-07T15:35:26.390Z,28.10
2022-09-07T15:41:18.213Z,27.90
2022-09-07T15:43:37.506Z,27.90
2022-09-07T15:46:03.960Z,27.80
2022-09-07T15:48:30.420Z,27.80
2022-09-07T15:52:04.861Z,27.80
2022-09-07T15:56:42.673Z,27.80
2022-09-07T15:59:09.985Z,27.70
2022-09-07T16:01:53.915Z,27.70
2022-09-07T16:04:20.932Z,27.50
2022-09-07T16:06:49.623Z,27.40
2022-09-07T16:09:16.201Z,27.30
2022-09-07T16:11:42.218Z,27.10
2022-09-07T16:14:10.988Z,27.10
2022-09-07T16:19:23.127Z,26.90
2022-09-07T16:21:49.164Z,26.80
2022-09-07T16:24:16.632Z,26.70
2022-09-07T16:26:42.690Z,26.70
2022-09-07T16:29:08.733Z,26.70
2022-09-07T16:31:35.123Z,26.60
2022-09-07T16:34:02.722Z,26.70
2022-09-07T16:36:28.801Z,26.70
2022-09-07T16:38:58.214Z,26.70
2022-09-07T16:41:28.627Z,26.70
2022-09-07T16:43:55.545Z,26.60
2022-09-07T16:46:24.933Z,26.60
2022-09-07T16:48:52.008Z,26.50
2022-09-07T16:51:20.529Z,26.40
2022-09-07T16:53:48.305Z,26.30
2022-09-07T16:56:17.160Z,26.20
2022-09-07T16:58:45.745Z,26.10
2022-09-07T17:01:14.623Z,26.00
2022-09-07T17:03:41.676Z,25.90
2022-09-07T17:06:11.255Z,25.80
2022-09-07T17:08:38.537Z,25.70
2022-09-07T17:11:19.600Z,25.60
2022-09-07T17:13:46.117Z,25.50
2022-09-07T17:16:15.675Z,25.40
2022-09-07T17:21:34.281Z,25.20
2022-09-07T17:24:03.811Z,25.10
2022-09-07T17:26:31.213Z,24.90
2022-09-07T17:29:00.206Z,24.90
2022-09-07T17:34:21.937Z,24.70
2022-09-07T17:36:48.586Z,24.60
2022-09-07T17:39:17.228Z,24.50
2022-09-07T17:41:45.614Z,24.40
2022-09-07T17:44:12.027Z,24.40
2022-09-07T17:46:38.177Z,24.30
2022-09-07T17:49:09.644Z,24.20
2022-09-07T17:51:35.966Z,24.10
2022-09-07T17:54:09.695Z,24.00
2022-09-07T17:56:36.729Z,23.90
2022-09-07T18:01:49.429Z,23.70
2022-09-07T18:04:16.376Z,23.60
2022-09-07T18:06:46.665Z,23.50
2022-09-07T18:09:13.329Z,23.40
2022-09-07T18:11:45.847Z,23.20
2022-09-07T18:14:13.686Z,23.10
2022-09-07T18:16:39.929Z,23.00
2022-09-07T18:19:08.769Z,22.90
2022-09-07T18:21:36.342Z,22.80
2022-09-07T18:24:06.821Z,22.70
2022-09-07T18:26:35.258Z,22.60
2022-09-07T18:29:03.600Z,22.60
2022-09-07T18:31:30.451Z,22.60
2022-09-07T18:33:57.281Z,22.50
2022-09-07T18:36:24.882Z,22.40
2022-09-07T18:38:51.395Z,22.30
2022-09-07T18:41:18.169Z,22.30
2022-09-07T18:43:46.252Z,22.20
2022-09-07T18:46:15.813Z,22.10
2022-09-07T18:48:42.574Z,22.10
2022-09-07T18:51:09.949Z,22.00
2022-09-07T18:53:36.902Z,22.00
2022-09-07T18:56:07.352Z,22.00
2022-09-07T18:58:34.211Z,22.00
2022-09-07T19:01:05.565Z,22.00
2022-09-07T19:03:32.166Z,21.90
2022-09-07T19:06:18.461Z,21.90
2022-09-07T19:08:45.868Z,21.80
2022-09-07T19:11:17.001Z,21.80
2022-09-07T19:13:43.753Z,21.70
2022-09-07T19:16:16.065Z,21.70
2022-09-07T19:18:51.295Z,21.60
2022-09-07T19:21:19.988Z,21.50
2022-09-07T19:24:06.135Z,21.40
2022-09-07T19:26:35.652Z,21.40
2022-09-07T19:29:03.665Z,21.30
2022-09-07T19:31:30.590Z,21.20
2022-09-07T19:34:00.854Z,21.10
2022-09-07T19:36:32.089Z,21.10
2022-09-07T19:38:58.412Z,21.00
2022-09-07T19:41:24.540Z,20.90
2022-09-07T19:43:50.852Z,20.80
2022-09-07T19:46:21.411Z,20.80
2022-09-07T19:48:50.522Z,20.70
2022-09-07T19:51:17.279Z,20.60
2022-09-07T19:53:45.854Z,20.60
2022-09-07T19:56:20.207Z,20.60
2022-09-07T19:58:47.903Z,20.50
2022-09-07T20:01:16.808Z,20.40
2022-09-07T20:03:44.667Z,20.40
2022-09-07T20:06:14.048Z,20.30
2022-09-07T20:08:41.037Z,20.20
2022-09-07T20:11:11.766Z,20.10
2022-09-07T20:13:38.951Z,20.10
2022-09-07T20:16:07.173Z,20.00
2022-09-07T20:18:35.687Z,20.00
2022-09-07T20:21:06.696Z,19.90
2022-09-07T20:23:34.388Z,19.90
2022-09-07T20:26:03.344Z,19.80
2022-09-07T20:28:30.592Z,19.70
2022-09-07T20:30:57.073Z,19.60
2022-09-07T20:33:23.611Z,19.60
2022-09-07T20:35:50.148Z,19.50
2022-09-07T20:38:17.639Z,19.50
2022-09-07T20:40:54.772Z,19.50
2022-09-07T20:43:21.519Z,19.40
2022-09-07T20:45:47.767Z,19.40
2022-09-07T20:48:14.002Z,19.30
2022-09-07T20:50:40.058Z,19.30
2022-09-07T20:53:06.546Z,19.30
2022-09-07T20:55:37.903Z,19.30
2022-09-07T20:58:03.936Z,19.30
2022-09-07T21:00:30.678Z,19.30
2022-09-07T21:02:57.078Z,19.30
2022-09-07T21:05:23.520Z,19.30
2022-09-07T21:07:49.574Z,19.20
2022-09-07T21:10:16.176Z,19.20
2022-09-07T21:12:42.224Z,19.10
2022-09-07T21:15:09.124Z,19.10
2022-09-07T21:17:35.118Z,19.10
2022-09-07T21:20:01.413Z,19.00
2022-09-07T21:22:27.459Z,19.00
2022-09-07T21:24:53.556Z,19.00
2022-09-07T21:27:19.741Z,18.90
2022-09-07T21:29:45.843Z,18.90
2022-09-07T21:32:11.856Z,18.90
2022-09-07T21:34:37.979Z,18.90
2022-09-07T21:37:04.010Z,18.90
2022-09-07T21:39:32.931Z,18.90
2022-09-07T21:41:58.990Z,18.90
2022-09-07T21:44:25.263Z,18.80
2022-09-07T21:46:51.780Z,18.80
2022-09-07T21:49:17.866Z,18.80
2022-09-07T21:51:44.062Z,18.80
2022-09-07T21:54:10.097Z,18.80
2022-09-07T21:56:36.121Z,18.80
2022-09-07T21:59:02.367Z,18.80
2022-09-07T22:01:30.005Z,18.80
2022-09-07T22:04:01.709Z,18.80
2022-09-07T22:06:29.081Z,18.80
2022-09-07T22:08:55.755Z,18.90
2022-09-07T22:11:23.813Z,18.90
2022-09-07T22:13:54.876Z,18.90
2022-09-07T22:16:21.366Z,18.90
2022-09-07T22:18:47.799Z,18.90
2022-09-07T22:21:17.251Z,18.90
2022-09-07T22:23:46.165Z,18.90
2022-09-07T22:26:13.392Z,18.90
2022-09-07T22:28:39.613Z,18.90
2022-09-07T22:31:08.478Z,18.90
2022-09-07T22:33:35.028Z,18.90
2022-09-07T22:36:14.361Z,19.00
2022-09-07T22:38:42.275Z,19.00
2022-09-07T22:41:17.509Z,19.00
2022-09-07T22:43:44.724Z,19.00
2022-09-07T22:46:11.824Z,19.00
2022-09-07T22:48:38.913Z,19.00
2022-09-07T22:51:06.396Z,19.00
2022-09-07T22:53:35.051Z,19.00
2022-09-07T22:56:06.583Z,19.00
2022-09-07T22:58:33.504Z,18.90
2022-09-07T23:01:00.080Z,18.90
2022-09-07T23:03:28.108Z,18.90
2022-09-07T23:05:54.764Z,18.90
2022-09-07T23:08:20.947Z,18.90
2022-09-07T23:10:46.933Z,18.90
2022-09-07T23:13:16.821Z,18.90
2022-09-07T23:15:43.235Z,18.90
2022-09-07T23:18:19.203Z,18.90
2022-09-07T23:20:45.617Z,18.90
2022-09-07T23:23:12.741Z,18.90
2022-09-07T23:25:41.086Z,18.90
2022-09-07T23:28:11.504Z,18.90
2022-09-07T23:30:40.208Z,18.90
2022-09-07T23:33:06.773Z,19.00
2022-09-07T23:35:33.030Z,18.90
2022-09-07T23:37:59.223Z,18.90
2022-09-07T23:40:25.546Z,18.90
2022-09-07T23:42:52.684Z,18.90
2022-09-07T23:45:18.775Z,18.90
2022-09-07T23:47:45.230Z,18.90
2022-09-07T23:50:11.606Z,18.90
2022-09-07T23:52:37.752Z,18.90
2022-09-07T23:55:04.345Z,18.90
2022-09-07T23:57:31.204Z,18.90
2022-09-07T23:59:58.207Z,18.90
